sensor_id;sensor_type;location;lat;lon;timestamp;pressure;altitude;pressure_sealevel;temperature;humidity
39491;BME280;25175;50.140;18.990;2024-02-14T00:01:48;99018.91;;;2.89;60.50
39491;BME280;25175;50.140;18.990;2024-02-14T00:04:58;99018.78;;;2.90;60.31
39491;BME280;25175;50.140;18.990;2024-02-14T00:08:28;99023.00;;;2.91;60.66
39491;BME280;25175;50.140;18.990;2024-02-14T00:15:41;99020.25;;;2.93;60.83
39491;BME280;25175;50.140;18.990;2024-02-14T00:19:01;99017.81;;;2.91;60.66
39491;BME280;25175;50.140;18.990;2024-02-14T00:22:16;99020.16;;;2.85;61.08
39491;BME280;25175;50.140;18.990;2024-02-14T00:25:46;99022.47;;;2.88;61.17
39491;BME280;25175;50.140;18.990;2024-02-14T00:29:40;99030.75;;;2.91;60.84
39491;BME280;25175;50.140;18.990;2024-02-14T00:33:00;99027.66;;;2.88;60.95
39491;BME280;25175;50.140;18.990;2024-02-14T00:36:13;99038.28;;;2.85;61.24
39491;BME280;25175;50.140;18.990;2024-02-14T00:39:29;99032.44;;;2.83;61.27
39491;BME280;25175;50.140;18.990;2024-02-14T00:47:00;99041.56;;;2.87;61.34
39491;BME280;25175;50.140;18.990;2024-02-14T00:50:13;99038.53;;;2.91;61.04
39491;BME280;25175;50.140;18.990;2024-02-14T00:53:53;99036.19;;;2.98;60.97
39491;BME280;25175;50.140;18.990;2024-02-14T01:00:49;99028.41;;;2.98;60.93
39491;BME280;25175;50.140;18.990;2024-02-14T01:04:03;99031.66;;;3.00;60.87
39491;BME280;25175;50.140;18.990;2024-02-14T01:07:24;99027.59;;;2.97;61.01
39491;BME280;25175;50.140;18.990;2024-02-14T01:10:36;99031.66;;;3.00;60.97
39491;BME280;25175;50.140;18.990;2024-02-14T01:13:42;99022.25;;;2.99;60.63
39491;BME280;25175;50.140;18.990;2024-02-14T01:18:04;99019.66;;;2.99;60.58
39491;BME280;25175;50.140;18.990;2024-02-14T01:20:55;99017.88;;;2.99;60.03
39491;BME280;25175;50.140;18.990;2024-02-14T01:24:28;99014.63;;;2.97;59.94
39491;BME280;25175;50.140;18.990;2024-02-14T01:28:21;98986.47;;;2.85;59.77
39491;BME280;25175;50.140;18.990;2024-02-14T01:39:16;99004.97;;;2.90;59.17
39491;BME280;25175;50.140;18.990;2024-02-14T01:45:51;99006.59;;;2.73;59.00
39491;BME280;25175;50.140;18.990;2024-02-14T01:48:57;99008.28;;;2.65;59.31
39491;BME280;25175;50.140;18.990;2024-02-14T01:52:05;99007.81;;;2.52;59.60
39491;BME280;25175;50.140;18.990;2024-02-14T01:55:13;99005.25;;;2.42;59.70
39491;BME280;25175;50.140;18.990;2024-02-14T01:58:27;99006.94;;;2.34;59.71
39491;BME280;25175;50.140;18.990;2024-02-14T02:01:44;99010.38;;;2.25;60.18
39491;BME280;25175;50.140;18.990;2024-02-14T02:04:58;99008.22;;;2.20;60.39
39491;BME280;25175;50.140;18.990;2024-02-14T02:08:17;99011.09;;;2.17;60.36
39491;BME280;25175;50.140;18.990;2024-02-14T02:16:01;99008.13;;;2.12;60.15
39491;BME280;25175;50.140;18.990;2024-02-14T02:19:16;99004.59;;;2.04;60.59
39491;BME280;25175;50.140;18.990;2024-02-14T02:22:51;99002.44;;;1.99;60.83
39491;BME280;25175;50.140;18.990;2024-02-14T02:26:20;99009.25;;;2.00;61.17
39491;BME280;25175;50.140;18.990;2024-02-14T02:29:27;99010.31;;;2.07;60.77
39491;BME280;25175;50.140;18.990;2024-02-14T02:32:35;99007.16;;;2.13;60.53
39491;BME280;25175;50.140;18.990;2024-02-14T02:35:51;99012.19;;;2.15;60.92
39491;BME280;25175;50.140;18.990;2024-02-14T02:39:14;99017.75;;;2.20;61.04
39491;BME280;25175;50.140;18.990;2024-02-14T02:42:36;99023.31;;;2.25;60.67
39491;BME280;25175;50.140;18.990;2024-02-14T02:49:33;99017.31;;;2.34;60.71
39491;BME280;25175;50.140;18.990;2024-02-14T02:53:08;99024.75;;;2.37;60.55
39491;BME280;25175;50.140;18.990;2024-02-14T02:56:34;99031.59;;;2.38;60.80
39491;BME280;25175;50.140;18.990;2024-02-14T02:59:52;99030.50;;;2.40;60.67
39491;BME280;25175;50.140;18.990;2024-02-14T03:03:44;99031.81;;;2.44;60.64
39491;BME280;25175;50.140;18.990;2024-02-14T03:08:01;99030.91;;;2.45;60.70
39491;BME280;25175;50.140;18.990;2024-02-14T03:11:49;99037.16;;;2.43;60.77
39491;BME280;25175;50.140;18.990;2024-02-14T03:18:51;99036.22;;;2.44;61.01
39491;BME280;25175;50.140;18.990;2024-02-14T03:22:21;99039.59;;;2.44;61.00
39491;BME280;25175;50.140;18.990;2024-02-14T03:25:48;99034.41;;;2.44;61.00
39491;BME280;25175;50.140;18.990;2024-02-14T03:29:21;99044.94;;;2.43;60.94
39491;BME280;25175;50.140;18.990;2024-02-14T03:32:28;99045.88;;;2.42;61.02
39491;BME280;25175;50.140;18.990;2024-02-14T03:35:39;99057.88;;;2.43;61.06
39491;BME280;25175;50.140;18.990;2024-02-14T03:38:45;99050.13;;;2.43;60.72
39491;BME280;25175;50.140;18.990;2024-02-14T03:42:17;99038.44;;;2.29;60.70
39491;BME280;25175;50.140;18.990;2024-02-14T03:45:45;99063.38;;;2.30;60.36
39491;BME280;25175;50.140;18.990;2024-02-14T03:48:56;99067.78;;;2.20;60.99
39491;BME280;25175;50.140;18.990;2024-02-14T03:52:05;99057.16;;;2.14;61.10
39491;BME280;25175;50.140;18.990;2024-02-14T03:55:37;99069.03;;;2.07;61.36
39491;BME280;25175;50.140;18.990;2024-02-14T03:59:19;98842.66;;;0.63;60.87
39491;BME280;25175;50.140;18.990;2024-02-14T04:02:40;99061.53;;;2.13;60.62
39491;BME280;25175;50.140;18.990;2024-02-14T04:06:27;99042.88;;;2.00;60.58
39491;BME280;25175;50.140;18.990;2024-02-14T04:11:40;99031.09;;;1.79;60.41
39491;BME280;25175;50.140;18.990;2024-02-14T04:14:12;99052.84;;;1.95;60.72
39491;BME280;25175;50.140;18.990;2024-02-14T04:17:32;99060.75;;;1.94;60.71
39491;BME280;25175;50.140;18.990;2024-02-14T04:21:02;99066.75;;;1.85;60.27
39491;BME280;25175;50.140;18.990;2024-02-14T04:24:10;99065.78;;;1.86;60.51
39491;BME280;25175;50.140;18.990;2024-02-14T04:31:34;99075.34;;;1.85;60.13
39491;BME280;25175;50.140;18.990;2024-02-14T04:34:40;99068.69;;;1.83;60.45
39491;BME280;25175;50.140;18.990;2024-02-14T04:37:49;99082.41;;;1.83;60.06
39491;BME280;25175;50.140;18.990;2024-02-14T04:41:04;99065.94;;;1.84;59.63
39491;BME280;25175;50.140;18.990;2024-02-14T04:44:22;99071.66;;;1.88;59.48
39491;BME280;25175;50.140;18.990;2024-02-14T04:47:31;99070.97;;;1.86;59.47
39491;BME280;25175;50.140;18.990;2024-02-14T04:50:40;99027.19;;;1.56;59.24
39491;BME280;25175;50.140;18.990;2024-02-14T04:53:57;99079.16;;;1.81;59.41
39491;BME280;25175;50.140;18.990;2024-02-14T04:58:00;99090.19;;;1.74;59.92
39491;BME280;25175;50.140;18.990;2024-02-14T05:01:07;99094.16;;;1.68;60.02
39491;BME280;25175;50.140;18.990;2024-02-14T05:04:13;99090.34;;;1.63;60.13
39491;BME280;25175;50.140;18.990;2024-02-14T05:08:40;99085.84;;;1.55;60.21
39491;BME280;25175;50.140;18.990;2024-02-14T05:12:13;99084.63;;;1.50;60.33
39491;BME280;25175;50.140;18.990;2024-02-14T05:16:40;99084.47;;;1.51;60.33
39491;BME280;25175;50.140;18.990;2024-02-14T05:19:32;99091.00;;;1.55;60.01
39491;BME280;25175;50.140;18.990;2024-02-14T05:22:39;99068.69;;;1.45;60.17
39491;BME280;25175;50.140;18.990;2024-02-14T05:25:46;99091.00;;;1.55;60.30
39491;BME280;25175;50.140;18.990;2024-02-14T05:28:55;99085.16;;;1.53;60.00
39491;BME280;25175;50.140;18.990;2024-02-14T05:32:04;99086.25;;;1.51;60.12
39491;BME280;25175;50.140;18.990;2024-02-14T05:35:14;99077.41;;;1.44;60.49
39491;BME280;25175;50.140;18.990;2024-02-14T05:38:20;99048.63;;;1.18;60.25
39491;BME280;25175;50.140;18.990;2024-02-14T05:41:27;99083.25;;;1.46;59.74
39491;BME280;25175;50.140;18.990;2024-02-14T05:44:38;99086.38;;;1.49;59.62
39491;BME280;25175;50.140;18.990;2024-02-14T05:47:53;99064.03;;;1.39;59.34
39491;BME280;25175;50.140;18.990;2024-02-14T05:51:00;99099.06;;;1.52;59.45
39491;BME280;25175;50.140;18.990;2024-02-14T05:54:42;99092.81;;;1.55;59.29
39491;BME280;25175;50.140;18.990;2024-02-14T05:57:55;99102.19;;;1.56;59.21
39491;BME280;25175;50.140;18.990;2024-02-14T06:01:04;99097.97;;;1.55;59.05
39491;BME280;25175;50.140;18.990;2024-02-14T06:04:13;99097.41;;;1.51;59.02
39491;BME280;25175;50.140;18.990;2024-02-14T06:09:58;99106.81;;;1.52;59.10
39491;BME280;25175;50.140;18.990;2024-02-14T06:11:36;99102.72;;;1.50;59.36
39491;BME280;25175;50.140;18.990;2024-02-14T06:14:55;99102.72;;;1.50;59.38
39491;BME280;25175;50.140;18.990;2024-02-14T06:18:27;99108.44;;;1.44;59.39
39491;BME280;25175;50.140;18.990;2024-02-14T06:21:37;99091.78;;;1.27;59.53
39491;BME280;25175;50.140;18.990;2024-02-14T06:24:46;99121.84;;;1.28;60.00
39491;BME280;25175;50.140;18.990;2024-02-14T06:27:54;99124.84;;;1.24;60.09
39491;BME280;25175;50.140;18.990;2024-02-14T06:31:04;99124.84;;;1.24;60.41
39491;BME280;25175;50.140;18.990;2024-02-14T06:34:16;99112.56;;;1.16;60.32
39491;BME280;25175;50.140;18.990;2024-02-14T06:37:21;99131.63;;;1.25;60.58
39491;BME280;25175;50.140;18.990;2024-02-14T06:44:17;99124.19;;;1.31;60.53
39491;BME280;25175;50.140;18.990;2024-02-14T06:47:32;99108.25;;;1.26;60.83
39491;BME280;25175;50.140;18.990;2024-02-14T06:51:03;99122.00;;;1.36;60.73
39491;BME280;25175;50.140;18.990;2024-02-14T06:54:21;99125.41;;;1.37;60.75
39491;BME280;25175;50.140;18.990;2024-02-14T06:57:27;99104.84;;;1.26;60.72
39491;BME280;25175;50.140;18.990;2024-02-14T07:00:42;99120.38;;;1.35;61.19
39491;BME280;25175;50.140;18.990;2024-02-14T07:04:05;99128.69;;;1.39;61.33
39491;BME280;25175;50.140;18.990;2024-02-14T07:07:21;99127.47;;;1.43;61.38
39491;BME280;25175;50.140;18.990;2024-02-14T07:10:51;99126.13;;;1.48;61.32
39491;BME280;25175;50.140;18.990;2024-02-14T07:14:38;99130.75;;;1.54;61.45
39491;BME280;25175;50.140;18.990;2024-02-14T07:17:57;99121.41;;;1.23;61.75
39491;BME280;25175;50.140;18.990;2024-02-14T07:21:06;99126.13;;;1.58;62.34
39491;BME280;25175;50.140;18.990;2024-02-14T07:24:15;99132.66;;;1.62;62.39
39491;BME280;25175;50.140;18.990;2024-02-14T07:27:29;99137.56;;;1.65;62.71
39491;BME280;25175;50.140;18.990;2024-02-14T07:30:35;99131.16;;;1.69;62.81
39491;BME280;25175;50.140;18.990;2024-02-14T07:33:41;99137.84;;;1.71;63.11
39491;BME280;25175;50.140;18.990;2024-02-14T07:36:50;99125.31;;;1.76;63.17
39491;BME280;25175;50.140;18.990;2024-02-14T07:39:59;99120.44;;;1.83;63.17
39491;BME280;25175;50.140;18.990;2024-02-14T07:43:08;99123.13;;;1.91;63.33
39491;BME280;25175;50.140;18.990;2024-02-14T07:49:57;99126.09;;;2.05;63.59
39491;BME280;25175;50.140;18.990;2024-02-14T07:53:30;99113.44;;;2.12;63.44
39491;BME280;25175;50.140;18.990;2024-02-14T07:56:43;99120.38;;;2.21;63.45
39491;BME280;25175;50.140;18.990;2024-02-14T08:00:02;99124.69;;;2.30;63.45
39491;BME280;25175;50.140;18.990;2024-02-14T08:03:40;99130.53;;;2.41;63.15
39491;BME280;25175;50.140;18.990;2024-02-14T08:07:10;99137.59;;;2.49;63.33
39491;BME280;25175;50.140;18.990;2024-02-14T08:10:35;99130.75;;;2.57;63.18
39491;BME280;25175;50.140;18.990;2024-02-14T08:14:03;99137.53;;;2.68;63.58
39491;BME280;25175;50.140;18.990;2024-02-14T08:17:09;99128.09;;;2.76;64.01
39491;BME280;25175;50.140;18.990;2024-02-14T08:20:16;99134.19;;;2.85;64.02
39491;BME280;25175;50.140;18.990;2024-02-14T08:23:28;99140.00;;;2.96;63.93
39491;BME280;25175;50.140;18.990;2024-02-14T08:26:39;99130.41;;;3.06;63.75
39491;BME280;25175;50.140;18.990;2024-02-14T08:29:48;99132.25;;;3.14;63.97
39491;BME280;25175;50.140;18.990;2024-02-14T08:32:57;99135.47;;;3.25;63.65
39491;BME280;25175;50.140;18.990;2024-02-14T08:36:11;99138.69;;;3.37;63.80
39491;BME280;25175;50.140;18.990;2024-02-14T08:39:21;99034.06;;;2.84;63.16
39491;BME280;25175;50.140;18.990;2024-02-14T08:42:28;99128.81;;;3.58;63.56
39491;BME280;25175;50.140;18.990;2024-02-14T08:49:16;99131.53;;;3.83;62.62
39491;BME280;25175;50.140;18.990;2024-02-14T08:52:37;99115.81;;;3.85;62.17
39491;BME280;25175;50.140;18.990;2024-02-14T08:59:12;99126.50;;;4.25;62.40
39491;BME280;25175;50.140;18.990;2024-02-14T09:02:24;99118.00;;;4.40;62.06
39491;BME280;25175;50.140;18.990;2024-02-14T09:05:36;99122.47;;;4.56;61.29
39491;BME280;25175;50.140;18.990;2024-02-14T09:08:43;99115.06;;;4.69;61.46
39491;BME280;25175;50.140;18.990;2024-02-14T09:12:14;99119.19;;;4.87;60.09
39491;BME280;25175;50.140;18.990;2024-02-14T09:15:39;99117.16;;;4.99;58.36
39491;BME280;25175;50.140;18.990;2024-02-14T09:22:28;99099.16;;;5.13;56.80
39491;BME280;25175;50.140;18.990;2024-02-14T09:25:37;99089.13;;;5.26;55.82
39491;BME280;25175;50.140;18.990;2024-02-14T09:28:43;99115.19;;;5.50;55.85
39491;BME280;25175;50.140;18.990;2024-02-14T09:32:12;99108.56;;;5.64;54.41
39491;BME280;25175;50.140;18.990;2024-02-14T09:35:22;99116.06;;;5.75;53.73
39491;BME280;25175;50.140;18.990;2024-02-14T09:38:43;99119.97;;;5.87;53.73
39491;BME280;25175;50.140;18.990;2024-02-14T09:41:52;99108.91;;;6.01;52.90
39491;BME280;25175;50.140;18.990;2024-02-14T09:45:12;99104.81;;;6.14;51.50
39491;BME280;25175;50.140;18.990;2024-02-14T09:51:48;99110.97;;;6.37;51.00
39491;BME280;25175;50.140;18.990;2024-02-14T09:54:57;99088.31;;;6.38;50.83
39491;BME280;25175;50.140;18.990;2024-02-14T09:58:06;99110.06;;;6.69;49.61
39491;BME280;25175;50.140;18.990;2024-02-14T10:01:32;99105.78;;;6.84;49.76
39491;BME280;25175;50.140;18.990;2024-02-14T10:04:40;99112.88;;;6.98;49.24
39491;BME280;25175;50.140;18.990;2024-02-14T10:12:13;99097.78;;;7.16;46.81
39491;BME280;25175;50.140;18.990;2024-02-14T10:15:21;99089.34;;;7.22;46.04
39491;BME280;25175;50.140;18.990;2024-02-14T10:18:36;99096.13;;;7.31;46.60
39491;BME280;25175;50.140;18.990;2024-02-14T10:22:32;99089.50;;;7.43;45.85
39491;BME280;25175;50.140;18.990;2024-02-14T10:26:05;99091.09;;;7.52;45.60
39491;BME280;25175;50.140;18.990;2024-02-14T10:29:15;99083.88;;;7.54;45.37
39491;BME280;25175;50.140;18.990;2024-02-14T10:32:27;99077.72;;;7.55;45.02
39491;BME280;25175;50.140;18.990;2024-02-14T10:35:45;99091.72;;;7.54;44.84
39491;BME280;25175;50.140;18.990;2024-02-14T10:43:59;99082.31;;;7.67;45.11
39491;BME280;25175;50.140;18.990;2024-02-14T10:47:14;99072.00;;;7.74;44.96
39491;BME280;25175;50.140;18.990;2024-02-14T10:50:28;99069.31;;;7.82;44.13
39491;BME280;25175;50.140;18.990;2024-02-14T10:53:43;99071.13;;;7.81;44.47
39491;BME280;25175;50.140;18.990;2024-02-14T10:56:58;99062.28;;;7.82;44.12
39491;BME280;25175;50.140;18.990;2024-02-14T11:00:09;99062.28;;;7.82;43.59
39491;BME280;25175;50.140;18.990;2024-02-14T11:03:22;99057.34;;;7.87;43.80
39491;BME280;25175;50.140;18.990;2024-02-14T11:06:58;99055.94;;;7.99;43.94
39491;BME280;25175;50.140;18.990;2024-02-14T11:10:28;99038.28;;;8.01;43.54
39491;BME280;25175;50.140;18.990;2024-02-14T11:13:57;99055.94;;;8.14;43.22
39491;BME280;25175;50.140;18.990;2024-02-14T11:17:13;99048.09;;;8.14;42.99
39491;BME280;25175;50.140;18.990;2024-02-14T11:20:35;99048.38;;;8.19;43.27
39491;BME280;25175;50.140;18.990;2024-02-14T11:24:05;99048.38;;;8.19;42.88
39491;BME280;25175;50.140;18.990;2024-02-14T11:31:21;99038.59;;;8.21;42.46
39491;BME280;25175;50.140;18.990;2024-02-14T11:35:18;99032.34;;;8.22;43.30
39491;BME280;25175;50.140;18.990;2024-02-14T11:38:27;99035.59;;;8.24;43.63
39491;BME280;25175;50.140;18.990;2024-02-14T11:41:40;99037.03;;;8.26;43.19
39491;BME280;25175;50.140;18.990;2024-02-14T11:45:00;99017.91;;;8.26;43.57
39491;BME280;25175;50.140;18.990;2024-02-14T11:48:09;99022.81;;;8.29;43.92
39491;BME280;25175;50.140;18.990;2024-02-14T11:51:27;99017.66;;;8.35;44.34
39491;BME280;25175;50.140;18.990;2024-02-14T11:54:51;99040.47;;;8.41;43.97
39491;BME280;25175;50.140;18.990;2024-02-14T11:58:06;99005.50;;;8.42;43.97
39491;BME280;25175;50.140;18.990;2024-02-14T12:01:21;98998.91;;;8.46;44.45
39491;BME280;25175;50.140;18.990;2024-02-14T12:04:28;99008.47;;;8.54;44.15
39491;BME280;25175;50.140;18.990;2024-02-14T12:08:00;98999.28;;;8.58;44.23
39491;BME280;25175;50.140;18.990;2024-02-14T12:11:11;98995.66;;;8.59;44.10
39491;BME280;25175;50.140;18.990;2024-02-14T12:14:27;98996.47;;;8.59;43.70
39491;BME280;25175;50.140;18.990;2024-02-14T12:17:34;98993.56;;;8.54;43.69
39491;BME280;25175;50.140;18.990;2024-02-14T12:21:03;98991.13;;;8.53;43.88
39491;BME280;25175;50.140;18.990;2024-02-14T12:24:15;98988.97;;;8.56;43.94
39491;BME280;25175;50.140;18.990;2024-02-14T12:27:31;98979.00;;;8.60;43.48
39491;BME280;25175;50.140;18.990;2024-02-14T12:34:27;98976.44;;;8.66;43.56
39491;BME280;25175;50.140;18.990;2024-02-14T12:37:41;98963.31;;;8.60;43.39
39491;BME280;25175;50.140;18.990;2024-02-14T12:40:56;98961.03;;;8.57;43.63
39491;BME280;25175;50.140;18.990;2024-02-14T12:44:15;98982.75;;;8.72;43.83
39491;BME280;25175;50.140;18.990;2024-02-14T12:47:23;98976.97;;;8.76;43.43
39491;BME280;25175;50.140;18.990;2024-02-14T12:50:41;98972.59;;;8.83;44.10
39491;BME280;25175;50.140;18.990;2024-02-14T12:53:53;98968.72;;;8.94;44.36
39491;BME280;25175;50.140;18.990;2024-02-14T12:57:02;98963.34;;;9.02;43.10
39491;BME280;25175;50.140;18.990;2024-02-14T13:00:12;98961.16;;;9.05;42.89
39491;BME280;25175;50.140;18.990;2024-02-14T13:03:26;98969.09;;;9.12;43.27
39491;BME280;25175;50.140;18.990;2024-02-14T13:06:34;98965.91;;;9.16;43.04
39491;BME280;25175;50.140;18.990;2024-02-14T13:09:40;98989.28;;;9.18;43.05
39491;BME280;25175;50.140;18.990;2024-02-14T13:12:46;98955.63;;;9.15;42.93
39491;BME280;25175;50.140;18.990;2024-02-14T13:15:54;98966.16;;;9.21;43.10
39491;BME280;25175;50.140;18.990;2024-02-14T13:19:10;98964.97;;;9.24;43.15
39491;BME280;25175;50.140;18.990;2024-02-14T13:22:17;98955.38;;;9.31;43.35
39491;BME280;25175;50.140;18.990;2024-02-14T13:25:51;98952.44;;;9.40;43.20
39491;BME280;25175;50.140;18.990;2024-02-14T13:29:30;98948.00;;;9.41;42.85
39491;BME280;25175;50.140;18.990;2024-02-14T13:32:39;98946.81;;;9.43;43.17
39491;BME280;25175;50.140;18.990;2024-02-14T13:35:55;98952.47;;;9.47;42.47
39491;BME280;25175;50.140;18.990;2024-02-14T13:39:11;98955.50;;;9.44;42.39
39491;BME280;25175;50.140;18.990;2024-02-14T13:42:18;98956.06;;;9.39;42.98
39491;BME280;25175;50.140;18.990;2024-02-14T13:45:40;98952.00;;;9.37;43.17
39491;BME280;25175;50.140;18.990;2024-02-14T13:49:16;98951.25;;;9.43;43.66
39491;BME280;25175;50.140;18.990;2024-02-14T13:56:58;98947.13;;;9.34;43.34
39491;BME280;25175;50.140;18.990;2024-02-14T14:00:07;98937.25;;;9.29;43.62
39491;BME280;25175;50.140;18.990;2024-02-14T14:03:35;98940.22;;;9.26;43.41
39491;BME280;25175;50.140;18.990;2024-02-14T14:06:49;98941.41;;;9.24;43.57
39491;BME280;25175;50.140;18.990;2024-02-14T14:10:10;98945.19;;;9.21;44.10
39491;BME280;25175;50.140;18.990;2024-02-14T14:13:28;98953.63;;;9.17;43.75
39491;BME280;25175;50.140;18.990;2024-02-14T14:16:39;98949.56;;;9.14;44.11
39491;BME280;25175;50.140;18.990;2024-02-14T14:19:46;98951.00;;;9.17;44.24
39491;BME280;25175;50.140;18.990;2024-02-14T14:22:55;98951.25;;;9.22;44.48
39491;BME280;25175;50.140;18.990;2024-02-14T14:26:34;98947.72;;;9.29;44.05
39491;BME280;25175;50.140;18.990;2024-02-14T14:29:43;98947.13;;;9.34;43.78
39491;BME280;25175;50.140;18.990;2024-02-14T14:32:55;98952.81;;;9.37;43.88
39491;BME280;25175;50.140;18.990;2024-02-14T14:36:06;98949.38;;;9.37;43.81
39491;BME280;25175;50.140;18.990;2024-02-14T14:39:57;98950.19;;;9.37;44.34
39491;BME280;25175;50.140;18.990;2024-02-14T14:43:38;98945.88;;;9.30;44.06
39491;BME280;25175;50.140;18.990;2024-02-14T14:46:44;98937.59;;;9.26;44.34
39491;BME280;25175;50.140;18.990;2024-02-14T14:49:53;98941.78;;;9.21;44.62
39491;BME280;25175;50.140;18.990;2024-02-14T14:53:24;98943.09;;;9.10;44.70
39491;BME280;25175;50.140;18.990;2024-02-14T14:56:34;98930.94;;;9.03;45.19
39491;BME280;25175;50.140;18.990;2024-02-14T14:59:50;98932.50;;;8.97;45.41
39491;BME280;25175;50.140;18.990;2024-02-14T15:07:08;98936.47;;;8.93;46.03
39491;BME280;25175;50.140;18.990;2024-02-14T15:18:50;98882.28;;;8.52;46.22
39491;BME280;25175;50.140;18.990;2024-02-14T15:22:14;98928.59;;;8.87;46.19
39491;BME280;25175;50.140;18.990;2024-02-14T15:25:33;98937.63;;;8.84;46.53
39491;BME280;25175;50.140;18.990;2024-02-14T15:28:45;98929.56;;;8.86;46.71
39491;BME280;25175;50.140;18.990;2024-02-14T15:32:03;98903.88;;;8.75;47.03
39491;BME280;25175;50.140;18.990;2024-02-14T15:35:34;98929.38;;;8.87;46.81
39491;BME280;25175;50.140;18.990;2024-02-14T15:38:41;98919.72;;;8.88;47.08
39491;BME280;25175;50.140;18.990;2024-02-14T15:41:53;98917.28;;;8.86;46.91
39491;BME280;25175;50.140;18.990;2024-02-14T15:45:10;98917.88;;;8.82;46.95
39491;BME280;25175;50.140;18.990;2024-02-14T15:48:22;98921.00;;;8.77;47.01
39491;BME280;25175;50.140;18.990;2024-02-14T15:51:43;98914.56;;;8.73;47.16
39491;BME280;25175;50.140;18.990;2024-02-14T15:59:08;98902.59;;;8.50;47.73
39491;BME280;25175;50.140;18.990;2024-02-14T16:02:48;98936.94;;;8.61;47.90
39491;BME280;25175;50.140;18.990;2024-02-14T16:09:57;98936.59;;;8.50;48.12
39491;BME280;25175;50.140;18.990;2024-02-14T16:13:24;98942.34;;;8.45;48.37
39491;BME280;25175;50.140;18.990;2024-02-14T16:16:40;98940.13;;;8.42;48.53
39491;BME280;25175;50.140;18.990;2024-02-14T16:27:39;98961.34;;;8.18;48.75
39491;BME280;25175;50.140;18.990;2024-02-14T16:30:48;98957.44;;;8.14;48.93
39491;BME280;25175;50.140;18.990;2024-02-14T16:33:53;98953.94;;;8.07;49.29
39491;BME280;25175;50.140;18.990;2024-02-14T16:37:21;98964.91;;;8.03;49.39
39491;BME280;25175;50.140;18.990;2024-02-14T16:40:39;98965.63;;;7.97;49.63
39491;BME280;25175;50.140;18.990;2024-02-14T16:44:03;98970.59;;;7.92;49.60
39491;BME280;25175;50.140;18.990;2024-02-14T16:47:11;98963.75;;;7.91;49.87
39491;BME280;25175;50.140;18.990;2024-02-14T16:50:38;98956.91;;;7.90;49.98
39491;BME280;25175;50.140;18.990;2024-02-14T16:54:09;98968.34;;;7.89;49.98
39491;BME280;25175;50.140;18.990;2024-02-14T17:02:01;98957.25;;;7.87;50.33
39491;BME280;25175;50.140;18.990;2024-02-14T17:08:49;98964.13;;;7.88;50.71
39491;BME280;25175;50.140;18.990;2024-02-14T17:11:59;98966.72;;;7.88;50.53
39491;BME280;25175;50.140;18.990;2024-02-14T17:16:08;98967.69;;;7.87;50.87
39491;BME280;25175;50.140;18.990;2024-02-14T17:25:18;98966.25;;;7.84;51.16
39491;BME280;25175;50.140;18.990;2024-02-14T17:32:41;98972.63;;;7.82;50.91
39491;BME280;25175;50.140;18.990;2024-02-14T17:39:13;98965.53;;;7.76;51.12
39491;BME280;25175;50.140;18.990;2024-02-14T17:42:40;98967.16;;;7.77;51.24
39491;BME280;25175;50.140;18.990;2024-02-14T17:46:49;98968.97;;;7.76;51.24
39491;BME280;25175;50.140;18.990;2024-02-14T17:49:59;98965.34;;;7.77;51.35
39491;BME280;25175;50.140;18.990;2024-02-14T17:53:07;98961.66;;;7.72;51.21
39491;BME280;25175;50.140;18.990;2024-02-14T18:00:02;98964.91;;;7.74;51.27
39491;BME280;25175;50.140;18.990;2024-02-14T18:03:27;98972.72;;;7.74;51.51
39491;BME280;25175;50.140;18.990;2024-02-14T18:06:33;98976.16;;;7.74;51.73
39491;BME280;25175;50.140;18.990;2024-02-14T18:09:45;98968.97;;;7.76;51.80
39491;BME280;25175;50.140;18.990;2024-02-14T18:12:51;98887.00;;;7.26;51.81
39491;BME280;25175;50.140;18.990;2024-02-14T18:16:03;98975.25;;;7.82;51.87
39491;BME280;25175;50.140;18.990;2024-02-14T18:19:20;98966.25;;;7.84;52.10
39491;BME280;25175;50.140;18.990;2024-02-14T18:22:26;98976.69;;;7.84;51.93
39491;BME280;25175;50.140;18.990;2024-02-14T18:25:32;98981.31;;;7.82;51.73
39491;BME280;25175;50.140;18.990;2024-02-14T18:28:41;98974.28;;;7.83;51.99
39491;BME280;25175;50.140;18.990;2024-02-14T18:31:57;98975.09;;;7.83;51.82
39491;BME280;25175;50.140;18.990;2024-02-14T18:35:04;98973.28;;;7.84;52.01
39491;BME280;25175;50.140;18.990;2024-02-14T18:38:10;98978.53;;;7.84;52.38
39491;BME280;25175;50.140;18.990;2024-02-14T18:41:36;98983.91;;;7.82;52.18
39491;BME280;25175;50.140;18.990;2024-02-14T18:44:43;98977.25;;;7.80;52.11
39491;BME280;25175;50.140;18.990;2024-02-14T18:47:54;98980.84;;;7.79;52.26
39491;BME280;25175;50.140;18.990;2024-02-14T18:51:04;98976.78;;;7.76;52.32
39491;BME280;25175;50.140;18.990;2024-02-14T18:54:10;98982.34;;;7.73;52.33
39491;BME280;25175;50.140;18.990;2024-02-14T18:57:19;98971.28;;;7.71;52.64
39491;BME280;25175;50.140;18.990;2024-02-14T19:00:34;98974.91;;;7.70;52.56
39491;BME280;25175;50.140;18.990;2024-02-14T19:03:45;98974.72;;;7.72;52.96
39491;BME280;25175;50.140;18.990;2024-02-14T19:07:43;98970.84;;;7.68;52.96
39491;BME280;25175;50.140;18.990;2024-02-14T19:10:53;98964.88;;;7.59;52.95
39491;BME280;25175;50.140;18.990;2024-02-14T19:14:02;98971.53;;;7.62;52.95
39491;BME280;25175;50.140;18.990;2024-02-14T19:17:14;98976.13;;;7.60;53.35
39491;BME280;25175;50.140;18.990;2024-02-14T19:20:39;98968.66;;;7.57;53.11
39491;BME280;25175;50.140;18.990;2024-02-14T19:23:50;98969.97;;;7.53;53.32
39491;BME280;25175;50.140;18.990;2024-02-14T19:27:05;98985.38;;;7.48;53.71
39491;BME280;25175;50.140;18.990;2024-02-14T19:30:19;98977.91;;;7.45;54.08
39491;BME280;25175;50.140;18.990;2024-02-14T19:37:13;98974.00;;;7.41;54.07
39491;BME280;25175;50.140;18.990;2024-02-14T19:40:19;98979.56;;;7.38;54.07
39491;BME280;25175;50.140;18.990;2024-02-14T19:44:23;98984.31;;;7.34;54.30
39491;BME280;25175;50.140;18.990;2024-02-14T19:47:30;98961.13;;;7.17;54.09
39491;BME280;25175;50.140;18.990;2024-02-14T19:50:40;98991.53;;;7.32;54.27